Pays
Station

 

Conditions  météo  pour  Miyakojima  -  Japon    Japon

  
18 °C
    
 
 

METAR pour Miyakojima :

ROMY 191100Z 11005KT 9999 FEW044 SCT050 18/12 Q1021

 

Voici le bulletin pour Miyakojima - Japon.
 
Le bulletin a été fait il y a une heure et 24 minutes, à 11:00 UTC .
Le vent soufflait à la vitesse de 2.6 mètres par seconde de Est/Sud-est (110°).
 
La température était de 18 °C, avec un point de rosée à 12 °C.
La pression atmosphérique était de 1021 hPa.
L'humidité relative était de 68.0%.
 
Il y avait 1 à 2/8ème de nébulosité à une hauteur de 1341 mètres et 3 à 4/8ème de nébulosité à une hauteur de 1524 mètres.
 
La visibilité globale était de supérieure à 10 kilomètres.
 

 
 
 

Pays :   A   B   C   D   E   F   G   H   I   J   K   L   M   N   O   P   Q   R   S   T   U   V   W   Y   Z

 

Partenaires :  Info Météo avec Met'info
Météo Marine avec MeteoMarine.net
Infos Site  |  Infos Légales  |  Crédits  |  Confidentialité
Contactez-nous  |  Ajouter aux favoris
© 2013-2018 METAR - Tous droits réservés